sensor_id;sensor_type;location;lat;lon;timestamp;P1;durP1;ratioP1;P2;durP2;ratioP2
22070;SDS011;11200;51.488;6.668;2022-11-14T00:00:09;7.65;;;5.15;;
22070;SDS011;11200;51.488;6.668;2022-11-14T00:02:36;6.70;;;5.10;;
22070;SDS011;11200;51.488;6.668;2022-11-14T00:05:02;8.13;;;5.50;;
22070;SDS011;11200;51.488;6.668;2022-11-14T00:07:29;6.38;;;5.20;;
22070;SDS011;11200;51.488;6.668;2022-11-14T00:09:55;8.52;;;5.43;;
22070;SDS011;11200;51.488;6.668;2022-11-14T00:12:20;8.10;;;5.40;;
22070;SDS011;11200;51.488;6.668;2022-11-14T00:14:46;7.55;;;5.07;;
22070;SDS011;11200;51.488;6.668;2022-11-14T00:17:11;6.72;;;5.10;;
22070;SDS011;11200;51.488;6.668;2022-11-14T00:19:37;7.38;;;5.38;;
22070;SDS011;11200;51.488;6.668;2022-11-14T00:22:02;8.75;;;5.50;;
22070;SDS011;11200;51.488;6.668;2022-11-14T00:24:28;7.70;;;5.25;;
22070;SDS011;11200;51.488;6.668;2022-11-14T00:26:54;7.07;;;5.20;;
22070;SDS011;11200;51.488;6.668;2022-11-14T00:29:19;7.15;;;5.05;;
22070;SDS011;11200;51.488;6.668;2022-11-14T00:31:45;7.38;;;5.40;;
22070;SDS011;11200;51.488;6.668;2022-11-14T00:34:10;6.13;;;5.07;;
22070;SDS011;11200;51.488;6.668;2022-11-14T00:36:38;6.75;;;4.97;;
22070;SDS011;11200;51.488;6.668;2022-11-14T00:39:04;6.60;;;4.93;;
22070;SDS011;11200;51.488;6.668;2022-11-14T00:41:30;6.97;;;5.45;;
22070;SDS011;11200;51.488;6.668;2022-11-14T00:43:55;7.05;;;5.35;;
22070;SDS011;11200;51.488;6.668;2022-11-14T00:46:21;5.97;;;5.38;;
22070;SDS011;11200;51.488;6.668;2022-11-14T00:48:46;6.60;;;5.40;;
22070;SDS011;11200;51.488;6.668;2022-11-14T00:51:12;8.43;;;5.70;;
22070;SDS011;11200;51.488;6.668;2022-11-14T00:53:38;6.43;;;4.93;;
22070;SDS011;11200;51.488;6.668;2022-11-14T00:56:03;6.18;;;4.90;;
22070;SDS011;11200;51.488;6.668;2022-11-14T00:58:29;7.00;;;5.07;;
22070;SDS011;11200;51.488;6.668;2022-11-14T01:00:55;7.03;;;5.45;;
22070;SDS011;11200;51.488;6.668;2022-11-14T01:03:21;8.88;;;5.60;;
22070;SDS011;11200;51.488;6.668;2022-11-14T01:05:48;6.22;;;4.97;;
22070;SDS011;11200;51.488;6.668;2022-11-14T01:08:15;7.57;;;5.03;;
22070;SDS011;11200;51.488;6.668;2022-11-14T01:10:43;6.65;;;5.05;;
22070;SDS011;11200;51.488;6.668;2022-11-14T01:13:10;6.03;;;5.13;;
22070;SDS011;11200;51.488;6.668;2022-11-14T01:15:43;7.07;;;5.25;;
22070;SDS011;11200;51.488;6.668;2022-11-14T01:18:11;8.80;;;5.57;;
22070;SDS011;11200;51.488;6.668;2022-11-14T01:20:42;6.65;;;5.10;;
22070;SDS011;11200;51.488;6.668;2022-11-14T01:23:09;7.07;;;5.30;;
22070;SDS011;11200;51.488;6.668;2022-11-14T01:25:37;7.57;;;5.57;;
22070;SDS011;11200;51.488;6.668;2022-11-14T01:28:07;7.93;;;5.50;;
22070;SDS011;11200;51.488;6.668;2022-11-14T01:30:34;6.53;;;5.20;;
22070;SDS011;11200;51.488;6.668;2022-11-14T01:33:00;7.63;;;5.38;;
22070;SDS011;11200;51.488;6.668;2022-11-14T01:35:26;6.85;;;5.30;;
22070;SDS011;11200;51.488;6.668;2022-11-14T01:37:52;7.20;;;5.45;;
22070;SDS011;11200;51.488;6.668;2022-11-14T01:40:17;7.05;;;5.45;;
22070;SDS011;11200;51.488;6.668;2022-11-14T01:45:52;7.47;;;5.30;;
22070;SDS011;11200;51.488;6.668;2022-11-14T01:48:22;7.03;;;5.88;;
22070;SDS011;11200;51.488;6.668;2022-11-14T01:53:47;7.32;;;5.32;;
22070;SDS011;11200;51.488;6.668;2022-11-14T01:56:16;7.35;;;5.43;;
22070;SDS011;11200;51.488;6.668;2022-11-14T01:58:52;6.85;;;5.47;;
22070;SDS011;11200;51.488;6.668;2022-11-14T02:01:22;7.78;;;5.43;;
22070;SDS011;11200;51.488;6.668;2022-11-14T02:03:49;6.47;;;5.18;;
22070;SDS011;11200;51.488;6.668;2022-11-14T02:06:18;6.55;;;5.13;;
22070;SDS011;11200;51.488;6.668;2022-11-14T02:08:47;7.80;;;6.13;;
22070;SDS011;11200;51.488;6.668;2022-11-14T02:11:14;8.63;;;5.85;;
22070;SDS011;11200;51.488;6.668;2022-11-14T02:13:40;7.88;;;5.72;;
22070;SDS011;11200;51.488;6.668;2022-11-14T02:16:05;7.65;;;5.57;;
22070;SDS011;11200;51.488;6.668;2022-11-14T02:18:31;7.78;;;6.18;;
22070;SDS011;11200;51.488;6.668;2022-11-14T02:20:57;7.60;;;5.50;;
22070;SDS011;11200;51.488;6.668;2022-11-14T02:23:26;6.80;;;5.88;;
22070;SDS011;11200;51.488;6.668;2022-11-14T02:25:54;7.07;;;5.20;;
22070;SDS011;11200;51.488;6.668;2022-11-14T02:28:19;7.60;;;5.80;;
22070;SDS011;11200;51.488;6.668;2022-11-14T02:30:46;6.43;;;5.45;;
22070;SDS011;11200;51.488;6.668;2022-11-14T02:33:11;7.03;;;5.72;;
22070;SDS011;11200;51.488;6.668;2022-11-14T02:35:38;8.40;;;5.95;;
22070;SDS011;11200;51.488;6.668;2022-11-14T02:38:04;8.00;;;5.78;;
22070;SDS011;11200;51.488;6.668;2022-11-14T02:40:30;6.15;;;5.07;;
22070;SDS011;11200;51.488;6.668;2022-11-14T02:42:55;8.98;;;5.75;;
22070;SDS011;11200;51.488;6.668;2022-11-14T02:45:21;7.47;;;5.50;;
22070;SDS011;11200;51.488;6.668;2022-11-14T02:47:47;7.13;;;5.53;;
22070;SDS011;11200;51.488;6.668;2022-11-14T02:50:13;7.85;;;5.88;;
22070;SDS011;11200;51.488;6.668;2022-11-14T02:52:38;7.57;;;5.72;;
22070;SDS011;11200;51.488;6.668;2022-11-14T02:55:04;7.82;;;5.60;;
22070;SDS011;11200;51.488;6.668;2022-11-14T02:57:30;7.97;;;6.13;;
22070;SDS011;11200;51.488;6.668;2022-11-14T02:59:56;7.53;;;5.80;;
22070;SDS011;11200;51.488;6.668;2022-11-14T03:02:21;7.15;;;5.32;;
22070;SDS011;11200;51.488;6.668;2022-11-14T03:04:47;7.75;;;6.15;;
22070;SDS011;11200;51.488;6.668;2022-11-14T03:07:12;6.88;;;5.68;;
22070;SDS011;11200;51.488;6.668;2022-11-14T03:09:38;7.78;;;5.85;;
22070;SDS011;11200;51.488;6.668;2022-11-14T03:12:03;7.80;;;5.90;;
22070;SDS011;11200;51.488;6.668;2022-11-14T03:14:29;7.80;;;6.20;;
22070;SDS011;11200;51.488;6.668;2022-11-14T03:16:55;8.32;;;5.88;;
22070;SDS011;11200;51.488;6.668;2022-11-14T03:19:21;6.93;;;5.35;;
22070;SDS011;11200;51.488;6.668;2022-11-14T03:21:47;7.35;;;5.50;;
22070;SDS011;11200;51.488;6.668;2022-11-14T03:24:12;8.32;;;6.13;;
22070;SDS011;11200;51.488;6.668;2022-11-14T03:26:38;7.80;;;6.25;;
22070;SDS011;11200;51.488;6.668;2022-11-14T03:29:03;7.88;;;6.25;;
22070;SDS011;11200;51.488;6.668;2022-11-14T03:31:29;7.72;;;6.05;;
22070;SDS011;11200;51.488;6.668;2022-11-14T03:33:54;7.55;;;6.20;;
22070;SDS011;11200;51.488;6.668;2022-11-14T03:36:20;7.10;;;5.93;;
22070;SDS011;11200;51.488;6.668;2022-11-14T03:38:46;7.50;;;6.18;;
22070;SDS011;11200;51.488;6.668;2022-11-14T03:41:11;7.55;;;5.93;;
22070;SDS011;11200;51.488;6.668;2022-11-14T03:43:37;9.40;;;6.80;;
22070;SDS011;11200;51.488;6.668;2022-11-14T03:46:03;8.50;;;6.50;;
22070;SDS011;11200;51.488;6.668;2022-11-14T03:48:29;8.25;;;6.32;;
22070;SDS011;11200;51.488;6.668;2022-11-14T03:50:55;9.43;;;6.40;;
22070;SDS011;11200;51.488;6.668;2022-11-14T03:53:21;8.77;;;6.63;;
22070;SDS011;11200;51.488;6.668;2022-11-14T03:55:47;10.50;;;6.90;;
22070;SDS011;11200;51.488;6.668;2022-11-14T03:58:12;8.95;;;6.65;;
22070;SDS011;11200;51.488;6.668;2022-11-14T04:00:38;8.25;;;6.57;;
22070;SDS011;11200;51.488;6.668;2022-11-14T04:03:03;9.18;;;7.00;;
22070;SDS011;11200;51.488;6.668;2022-11-14T04:05:29;8.23;;;6.45;;
22070;SDS011;11200;51.488;6.668;2022-11-14T04:07:55;8.88;;;6.40;;
22070;SDS011;11200;51.488;6.668;2022-11-14T04:10:20;9.45;;;6.97;;
22070;SDS011;11200;51.488;6.668;2022-11-14T04:12:47;8.18;;;6.43;;
22070;SDS011;11200;51.488;6.668;2022-11-14T04:15:14;10.25;;;7.10;;
22070;SDS011;11200;51.488;6.668;2022-11-14T04:17:40;9.02;;;6.55;;
22070;SDS011;11200;51.488;6.668;2022-11-14T04:20:06;8.63;;;6.57;;
22070;SDS011;11200;51.488;6.668;2022-11-14T04:22:32;9.40;;;6.90;;
22070;SDS011;11200;51.488;6.668;2022-11-14T04:24:57;9.13;;;6.78;;
22070;SDS011;11200;51.488;6.668;2022-11-14T04:27:23;9.35;;;7.10;;
22070;SDS011;11200;51.488;6.668;2022-11-14T04:29:48;8.93;;;7.00;;
22070;SDS011;11200;51.488;6.668;2022-11-14T04:32:14;9.02;;;6.70;;
22070;SDS011;11200;51.488;6.668;2022-11-14T04:34:39;8.77;;;7.00;;
22070;SDS011;11200;51.488;6.668;2022-11-14T04:37:05;9.15;;;7.05;;
22070;SDS011;11200;51.488;6.668;2022-11-14T04:39:31;10.07;;;7.25;;
22070;SDS011;11200;51.488;6.668;2022-11-14T04:41:57;8.10;;;6.78;;
22070;SDS011;11200;51.488;6.668;2022-11-14T04:44:22;9.20;;;6.60;;
22070;SDS011;11200;51.488;6.668;2022-11-14T04:46:48;9.38;;;6.72;;
22070;SDS011;11200;51.488;6.668;2022-11-14T04:49:13;8.90;;;7.05;;
22070;SDS011;11200;51.488;6.668;2022-11-14T04:51:39;8.77;;;6.80;;
22070;SDS011;11200;51.488;6.668;2022-11-14T04:54:04;9.60;;;6.80;;
22070;SDS011;11200;51.488;6.668;2022-11-14T04:56:30;8.75;;;6.63;;
22070;SDS011;11200;51.488;6.668;2022-11-14T04:58:55;8.02;;;6.20;;
22070;SDS011;11200;51.488;6.668;2022-11-14T05:01:21;8.43;;;6.40;;
22070;SDS011;11200;51.488;6.668;2022-11-14T05:03:47;10.25;;;6.70;;
22070;SDS011;11200;51.488;6.668;2022-11-14T05:06:12;8.27;;;6.57;;
22070;SDS011;11200;51.488;6.668;2022-11-14T05:08:38;10.20;;;6.93;;
22070;SDS011;11200;51.488;6.668;2022-11-14T05:11:03;8.75;;;6.85;;
22070;SDS011;11200;51.488;6.668;2022-11-14T05:13:29;10.45;;;7.03;;
22070;SDS011;11200;51.488;6.668;2022-11-14T05:15:58;9.07;;;6.57;;
22070;SDS011;11200;51.488;6.668;2022-11-14T05:18:24;9.27;;;6.88;;
22070;SDS011;11200;51.488;6.668;2022-11-14T05:20:50;7.82;;;6.63;;
22070;SDS011;11200;51.488;6.668;2022-11-14T05:23:22;9.68;;;6.85;;
22070;SDS011;11200;51.488;6.668;2022-11-14T05:26:07;9.23;;;6.75;;
22070;SDS011;11200;51.488;6.668;2022-11-14T05:28:34;8.88;;;6.80;;
22070;SDS011;11200;51.488;6.668;2022-11-14T05:31:06;9.63;;;7.38;;
22070;SDS011;11200;51.488;6.668;2022-11-14T05:33:33;10.43;;;6.97;;
22070;SDS011;11200;51.488;6.668;2022-11-14T05:38:34;8.38;;;6.88;;
22070;SDS011;11200;51.488;6.668;2022-11-14T05:41:12;10.07;;;7.20;;
22070;SDS011;11200;51.488;6.668;2022-11-14T05:43:40;10.55;;;7.68;;
22070;SDS011;11200;51.488;6.668;2022-11-14T05:46:06;8.50;;;7.30;;
22070;SDS011;11200;51.488;6.668;2022-11-14T05:48:34;9.65;;;7.05;;
22070;SDS011;11200;51.488;6.668;2022-11-14T05:51:02;9.23;;;7.53;;
22070;SDS011;11200;51.488;6.668;2022-11-14T05:53:29;11.82;;;7.35;;
22070;SDS011;11200;51.488;6.668;2022-11-14T05:56:03;10.73;;;7.32;;
22070;SDS011;11200;51.488;6.668;2022-11-14T05:58:30;10.27;;;7.63;;
22070;SDS011;11200;51.488;6.668;2022-11-14T06:01:04;10.48;;;7.05;;
22070;SDS011;11200;51.488;6.668;2022-11-14T06:03:39;9.40;;;7.40;;
22070;SDS011;11200;51.488;6.668;2022-11-14T06:06:07;9.82;;;7.50;;
22070;SDS011;11200;51.488;6.668;2022-11-14T06:08:34;9.70;;;7.13;;
22070;SDS011;11200;51.488;6.668;2022-11-14T06:11:04;8.77;;;6.90;;
22070;SDS011;11200;51.488;6.668;2022-11-14T06:13:32;10.20;;;6.72;;
22070;SDS011;11200;51.488;6.668;2022-11-14T06:15:58;8.80;;;7.47;;
22070;SDS011;11200;51.488;6.668;2022-11-14T06:18:28;9.80;;;7.50;;
22070;SDS011;11200;51.488;6.668;2022-11-14T06:20:58;10.18;;;7.70;;
22070;SDS011;11200;51.488;6.668;2022-11-14T06:23:29;10.18;;;7.28;;
22070;SDS011;11200;51.488;6.668;2022-11-14T06:25:58;10.85;;;7.53;;
22070;SDS011;11200;51.488;6.668;2022-11-14T06:28:28;11.80;;;7.65;;
22070;SDS011;11200;51.488;6.668;2022-11-14T06:30:58;9.10;;;7.32;;
22070;SDS011;11200;51.488;6.668;2022-11-14T06:33:27;10.57;;;7.80;;
22070;SDS011;11200;51.488;6.668;2022-11-14T06:35:59;9.32;;;7.00;;
22070;SDS011;11200;51.488;6.668;2022-11-14T06:38:26;9.80;;;7.35;;
22070;SDS011;11200;51.488;6.668;2022-11-14T06:41:27;10.93;;;8.00;;
22070;SDS011;11200;51.488;6.668;2022-11-14T06:43:47;9.77;;;7.30;;
22070;SDS011;11200;51.488;6.668;2022-11-14T06:46:16;10.90;;;7.65;;
22070;SDS011;11200;51.488;6.668;2022-11-14T06:48:43;9.93;;;7.70;;
22070;SDS011;11200;51.488;6.668;2022-11-14T06:51:10;9.20;;;7.25;;
22070;SDS011;11200;51.488;6.668;2022-11-14T06:53:37;14.07;;;7.82;;
22070;SDS011;11200;51.488;6.668;2022-11-14T06:56:04;9.25;;;7.68;;
22070;SDS011;11200;51.488;6.668;2022-11-14T06:58:34;9.90;;;7.75;;
22070;SDS011;11200;51.488;6.668;2022-11-14T07:01:04;9.43;;;7.57;;
22070;SDS011;11200;51.488;6.668;2022-11-14T07:03:35;10.27;;;7.60;;
22070;SDS011;11200;51.488;6.668;2022-11-14T07:06:01;10.63;;;7.72;;
22070;SDS011;11200;51.488;6.668;2022-11-14T07:08:28;10.80;;;7.70;;
22070;SDS011;11200;51.488;6.668;2022-11-14T07:11:08;9.88;;;7.80;;
22070;SDS011;11200;51.488;6.668;2022-11-14T07:13:35;11.80;;;8.10;;
22070;SDS011;11200;51.488;6.668;2022-11-14T07:16:01;11.05;;;8.15;;
22070;SDS011;11200;51.488;6.668;2022-11-14T07:18:30;10.00;;;7.78;;
22070;SDS011;11200;51.488;6.668;2022-11-14T07:20:58;10.60;;;8.00;;
22070;SDS011;11200;51.488;6.668;2022-11-14T07:23:25;10.32;;;7.65;;
22070;SDS011;11200;51.488;6.668;2022-11-14T07:25:51;10.45;;;7.85;;
22070;SDS011;11200;51.488;6.668;2022-11-14T07:28:17;9.93;;;7.50;;
22070;SDS011;11200;51.488;6.668;2022-11-14T07:30:42;10.35;;;7.40;;
22070;SDS011;11200;51.488;6.668;2022-11-14T07:33:08;10.55;;;7.68;;
22070;SDS011;11200;51.488;6.668;2022-11-14T07:35:35;11.10;;;7.78;;
22070;SDS011;11200;51.488;6.668;2022-11-14T07:38:03;9.18;;;6.88;;
22070;SDS011;11200;51.488;6.668;2022-11-14T07:40:29;10.00;;;7.50;;
22070;SDS011;11200;51.488;6.668;2022-11-14T07:42:58;9.20;;;7.25;;
22070;SDS011;11200;51.488;6.668;2022-11-14T07:45:25;9.52;;;7.40;;
22070;SDS011;11200;51.488;6.668;2022-11-14T07:47:55;10.57;;;7.63;;
22070;SDS011;11200;51.488;6.668;2022-11-14T07:50:26;9.88;;;7.38;;
22070;SDS011;11200;51.488;6.668;2022-11-14T07:52:53;9.77;;;7.60;;
22070;SDS011;11200;51.488;6.668;2022-11-14T07:55:19;9.30;;;7.32;;
22070;SDS011;11200;51.488;6.668;2022-11-14T07:57:46;11.32;;;7.63;;
22070;SDS011;11200;51.488;6.668;2022-11-14T08:00:12;9.88;;;7.50;;
22070;SDS011;11200;51.488;6.668;2022-11-14T08:02:38;9.82;;;7.70;;
22070;SDS011;11200;51.488;6.668;2022-11-14T08:05:04;9.73;;;7.50;;
22070;SDS011;11200;51.488;6.668;2022-11-14T08:07:30;11.40;;;7.50;;
22070;SDS011;11200;51.488;6.668;2022-11-14T08:09:56;12.55;;;7.80;;
22070;SDS011;11200;51.488;6.668;2022-11-14T08:12:22;9.57;;;7.28;;
22070;SDS011;11200;51.488;6.668;2022-11-14T08:14:50;10.15;;;8.40;;
22070;SDS011;11200;51.488;6.668;2022-11-14T08:17:16;10.75;;;7.60;;
22070;SDS011;11200;51.488;6.668;2022-11-14T08:19:41;10.82;;;8.30;;
22070;SDS011;11200;51.488;6.668;2022-11-14T08:22:07;11.27;;;8.57;;
22070;SDS011;11200;51.488;6.668;2022-11-14T08:24:33;12.15;;;8.75;;
22070;SDS011;11200;51.488;6.668;2022-11-14T08:26:58;10.20;;;8.40;;
22070;SDS011;11200;51.488;6.668;2022-11-14T08:29:24;11.63;;;8.80;;
22070;SDS011;11200;51.488;6.668;2022-11-14T08:31:49;10.60;;;8.95;;
22070;SDS011;11200;51.488;6.668;2022-11-14T08:34:15;12.65;;;9.18;;
22070;SDS011;11200;51.488;6.668;2022-11-14T08:36:42;12.52;;;9.15;;
22070;SDS011;11200;51.488;6.668;2022-11-14T08:39:07;11.20;;;8.77;;
22070;SDS011;11200;51.488;6.668;2022-11-14T08:41:33;11.52;;;8.88;;
22070;SDS011;11200;51.488;6.668;2022-11-14T08:43:58;12.00;;;8.70;;
22070;SDS011;11200;51.488;6.668;2022-11-14T08:46:24;10.90;;;8.73;;
22070;SDS011;11200;51.488;6.668;2022-11-14T08:48:49;12.38;;;9.43;;
22070;SDS011;11200;51.488;6.668;2022-11-14T08:51:15;13.02;;;9.35;;
22070;SDS011;11200;51.488;6.668;2022-11-14T08:53:40;13.02;;;9.82;;
22070;SDS011;11200;51.488;6.668;2022-11-14T08:56:07;14.32;;;10.15;;
22070;SDS011;11200;51.488;6.668;2022-11-14T08:58:34;15.27;;;10.98;;
22070;SDS011;11200;51.488;6.668;2022-11-14T09:01:01;12.98;;;9.73;;
22070;SDS011;11200;51.488;6.668;2022-11-14T09:03:31;13.55;;;10.63;;
22070;SDS011;11200;51.488;6.668;2022-11-14T09:05:57;14.27;;;11.20;;
22070;SDS011;11200;51.488;6.668;2022-11-14T09:08:23;16.83;;;12.10;;
22070;SDS011;11200;51.488;6.668;2022-11-14T09:10:49;16.55;;;11.43;;
22070;SDS011;11200;51.488;6.668;2022-11-14T09:13:15;15.25;;;11.40;;
22070;SDS011;11200;51.488;6.668;2022-11-14T09:15:41;18.10;;;11.98;;
22070;SDS011;11200;51.488;6.668;2022-11-14T09:18:10;15.13;;;11.18;;
22070;SDS011;11200;51.488;6.668;2022-11-14T09:20:36;15.77;;;11.73;;
22070;SDS011;11200;51.488;6.668;2022-11-14T09:23:03;18.08;;;12.40;;
22070;SDS011;11200;51.488;6.668;2022-11-14T09:25:30;16.13;;;11.68;;
22070;SDS011;11200;51.488;6.668;2022-11-14T09:27:56;17.48;;;12.27;;
22070;SDS011;11200;51.488;6.668;2022-11-14T09:30:22;16.20;;;11.95;;
22070;SDS011;11200;51.488;6.668;2022-11-14T09:32:48;16.80;;;12.18;;
22070;SDS011;11200;51.488;6.668;2022-11-14T09:35:14;16.80;;;12.57;;
22070;SDS011;11200;51.488;6.668;2022-11-14T09:37:40;15.70;;;12.38;;
22070;SDS011;11200;51.488;6.668;2022-11-14T09:40:06;16.92;;;12.32;;
22070;SDS011;11200;51.488;6.668;2022-11-14T09:45:11;20.10;;;13.02;;
22070;SDS011;11200;51.488;6.668;2022-11-14T09:47:43;18.77;;;13.13;;
22070;SDS011;11200;51.488;6.668;2022-11-14T09:50:18;18.98;;;13.57;;
22070;SDS011;11200;51.488;6.668;2022-11-14T09:52:49;17.30;;;12.57;;
22070;SDS011;11200;51.488;6.668;2022-11-14T09:55:22;19.50;;;13.20;;
22070;SDS011;11200;51.488;6.668;2022-11-14T09:57:55;17.55;;;12.90;;
22070;SDS011;11200;51.488;6.668;2022-11-14T10:00:22;21.60;;;14.73;;
22070;SDS011;11200;51.488;6.668;2022-11-14T10:11:21;20.92;;;14.07;;
22070;SDS011;11200;51.488;6.668;2022-11-14T10:25:06;21.58;;;14.25;;
22070;SDS011;11200;51.488;6.668;2022-11-14T10:31:03;19.77;;;13.80;;
22070;SDS011;11200;51.488;6.668;2022-11-14T10:33:55;21.45;;;14.27;;
22070;SDS011;11200;51.488;6.668;2022-11-14T10:36:41;22.40;;;14.82;;
22070;SDS011;11200;51.488;6.668;2022-11-14T10:39:25;22.25;;;14.43;;
22070;SDS011;11200;51.488;6.668;2022-11-14T10:42:01;22.10;;;14.25;;
22070;SDS011;11200;51.488;6.668;2022-11-14T10:44:36;21.88;;;14.43;;
22070;SDS011;11200;51.488;6.668;2022-11-14T10:47:11;20.33;;;14.27;;
22070;SDS011;11200;51.488;6.668;2022-11-14T10:49:39;20.25;;;14.23;;
22070;SDS011;11200;51.488;6.668;2022-11-14T10:52:14;20.55;;;14.35;;
22070;SDS011;11200;51.488;6.668;2022-11-14T10:54:49;18.92;;;14.02;;
22070;SDS011;11200;51.488;6.668;2022-11-14T10:57:23;19.33;;;13.10;;
22070;SDS011;11200;51.488;6.668;2022-11-14T10:59:49;19.00;;;13.20;;
22070;SDS011;11200;51.488;6.668;2022-11-14T11:02:16;19.48;;;13.48;;
22070;SDS011;11200;51.488;6.668;2022-11-14T11:04:43;19.58;;;13.38;;
22070;SDS011;11200;51.488;6.668;2022-11-14T11:09:58;19.27;;;12.55;;
22070;SDS011;11200;51.488;6.668;2022-11-14T11:13:03;16.50;;;11.30;;
22070;SDS011;11200;51.488;6.668;2022-11-14T11:15:29;15.85;;;11.32;;
22070;SDS011;11200;51.488;6.668;2022-11-14T11:18:03;14.40;;;10.52;;
22070;SDS011;11200;51.488;6.668;2022-11-14T11:20:40;15.30;;;10.38;;
22070;SDS011;11200;51.488;6.668;2022-11-14T11:23:16;14.00;;;10.25;;
22070;SDS011;11200;51.488;6.668;2022-11-14T11:25:44;13.18;;;9.75;;
22070;SDS011;11200;51.488;6.668;2022-11-14T11:30:53;14.23;;;9.50;;
22070;SDS011;11200;51.488;6.668;2022-11-14T11:33:24;14.88;;;9.73;;
22070;SDS011;11200;51.488;6.668;2022-11-14T11:35:55;13.50;;;8.70;;
22070;SDS011;11200;51.488;6.668;2022-11-14T11:38:24;13.38;;;9.10;;
22070;SDS011;11200;51.488;6.668;2022-11-14T11:40:53;12.63;;;8.77;;
22070;SDS011;11200;51.488;6.668;2022-11-14T11:46:07;12.00;;;8.27;;
22070;SDS011;11200;51.488;6.668;2022-11-14T11:48:45;11.20;;;8.15;;
22070;SDS011;11200;51.488;6.668;2022-11-14T11:51:16;12.02;;;7.85;;
22070;SDS011;11200;51.488;6.668;2022-11-14T11:53:49;11.52;;;8.07;;
22070;SDS011;11200;51.488;6.668;2022-11-14T11:56:25;10.55;;;7.78;;
22070;SDS011;11200;51.488;6.668;2022-11-14T11:59:13;11.68;;;7.85;;
22070;SDS011;11200;51.488;6.668;2022-11-14T12:02:00;10.63;;;7.88;;
22070;SDS011;11200;51.488;6.668;2022-11-14T12:04:37;10.65;;;7.88;;
22070;SDS011;11200;51.488;6.668;2022-11-14T12:07:09;10.43;;;7.70;;
22070;SDS011;11200;51.488;6.668;2022-11-14T12:09:39;10.27;;;7.43;;
22070;SDS011;11200;51.488;6.668;2022-11-14T12:12:07;9.18;;;7.40;;
22070;SDS011;11200;51.488;6.668;2022-11-14T12:31:55;10.27;;;7.90;;
22070;SDS011;11200;51.488;6.668;2022-11-14T12:34:24;12.18;;;8.90;;
22070;SDS011;11200;51.488;6.668;2022-11-14T12:37:12;11.15;;;8.32;;
22070;SDS011;11200;51.488;6.668;2022-11-14T12:39:42;10.82;;;8.25;;
22070;SDS011;11200;51.488;6.668;2022-11-14T12:42:24;11.82;;;8.57;;
22070;SDS011;11200;51.488;6.668;2022-11-14T12:44:50;11.00;;;7.97;;
22070;SDS011;11200;51.488;6.668;2022-11-14T12:58:09;11.65;;;8.90;;
22070;SDS011;11200;51.488;6.668;2022-11-14T13:06:10;10.43;;;8.13;;
22070;SDS011;11200;51.488;6.668;2022-11-14T13:11:42;10.45;;;8.35;;
22070;SDS011;11200;51.488;6.668;2022-11-14T13:14:28;10.57;;;8.73;;
22070;SDS011;11200;51.488;6.668;2022-11-14T13:33:49;11.65;;;8.80;;
22070;SDS011;11200;51.488;6.668;2022-11-14T13:39:12;11.05;;;8.75;;
22070;SDS011;11200;51.488;6.668;2022-11-14T13:42:04;11.30;;;8.57;;
22070;SDS011;11200;51.488;6.668;2022-11-14T13:50:40;11.23;;;8.93;;
22070;SDS011;11200;51.488;6.668;2022-11-14T13:53:26;11.35;;;9.35;;
22070;SDS011;11200;51.488;6.668;2022-11-14T13:55:54;11.13;;;8.65;;
22070;SDS011;11200;51.488;6.668;2022-11-14T13:58:36;10.60;;;8.68;;
22070;SDS011;11200;51.488;6.668;2022-11-14T14:29:21;10.30;;;8.57;;
22070;SDS011;11200;51.488;6.668;2022-11-14T14:32:14;10.00;;;8.52;;
22070;SDS011;11200;51.488;6.668;2022-11-14T14:34:41;9.95;;;8.20;;
22070;SDS011;11200;51.488;6.668;2022-11-14T14:37:26;10.68;;;8.88;;
22070;SDS011;11200;51.488;6.668;2022-11-14T14:40:00;10.70;;;8.55;;
22070;SDS011;11200;51.488;6.668;2022-11-14T14:42:37;11.15;;;9.02;;
22070;SDS011;11200;51.488;6.668;2022-11-14T14:45:09;12.02;;;9.27;;
22070;SDS011;11200;51.488;6.668;2022-11-14T14:47:40;11.65;;;9.07;;
22070;SDS011;11200;51.488;6.668;2022-11-14T14:50:21;14.73;;;9.30;;
22070;SDS011;11200;51.488;6.668;2022-11-14T14:52:59;11.82;;;9.50;;
22070;SDS011;11200;51.488;6.668;2022-11-14T14:55:27;12.02;;;9.43;;
22070;SDS011;11200;51.488;6.668;2022-11-14T14:58:11;10.82;;;8.95;;
22070;SDS011;11200;51.488;6.668;2022-11-14T15:00:52;11.98;;;9.32;;
22070;SDS011;11200;51.488;6.668;2022-11-14T15:03:43;11.65;;;9.15;;
22070;SDS011;11200;51.488;6.668;2022-11-14T15:08:54;11.57;;;9.18;;
22070;SDS011;11200;51.488;6.668;2022-11-14T15:11:21;13.10;;;9.43;;
22070;SDS011;11200;51.488;6.668;2022-11-14T15:13:55;12.45;;;9.80;;
22070;SDS011;11200;51.488;6.668;2022-11-14T15:16:22;11.13;;;9.05;;
22070;SDS011;11200;51.488;6.668;2022-11-14T15:18:52;13.88;;;10.32;;
22070;SDS011;11200;51.488;6.668;2022-11-14T15:21:28;12.50;;;9.63;;
22070;SDS011;11200;51.488;6.668;2022-11-14T15:26:48;13.88;;;9.77;;
22070;SDS011;11200;51.488;6.668;2022-11-14T15:29:20;12.65;;;9.55;;
22070;SDS011;11200;51.488;6.668;2022-11-14T15:31:55;12.88;;;10.35;;
22070;SDS011;11200;51.488;6.668;2022-11-14T15:34:30;12.27;;;9.70;;
22070;SDS011;11200;51.488;6.668;2022-11-14T15:39:38;13.50;;;10.10;;
22070;SDS011;11200;51.488;6.668;2022-11-14T15:42:11;12.30;;;9.82;;
22070;SDS011;11200;51.488;6.668;2022-11-14T15:44:43;12.73;;;10.35;;
22070;SDS011;11200;51.488;6.668;2022-11-14T15:47:11;12.98;;;9.98;;
22070;SDS011;11200;51.488;6.668;2022-11-14T15:52:36;12.93;;;10.65;;
22070;SDS011;11200;51.488;6.668;2022-11-14T15:55:09;12.57;;;10.15;;
22070;SDS011;11200;51.488;6.668;2022-11-14T15:57:41;13.77;;;10.70;;
22070;SDS011;11200;51.488;6.668;2022-11-14T16:00:10;13.20;;;10.63;;
22070;SDS011;11200;51.488;6.668;2022-11-14T16:02:44;14.02;;;11.13;;
22070;SDS011;11200;51.488;6.668;2022-11-14T16:05:16;12.68;;;10.10;;
22070;SDS011;11200;51.488;6.668;2022-11-14T16:07:46;13.23;;;10.23;;
22070;SDS011;11200;51.488;6.668;2022-11-14T16:12:39;13.18;;;10.13;;
22070;SDS011;11200;51.488;6.668;2022-11-14T16:15:05;12.13;;;9.80;;
22070;SDS011;11200;51.488;6.668;2022-11-14T16:17:33;13.63;;;10.70;;
22070;SDS011;11200;51.488;6.668;2022-11-14T16:20:04;13.77;;;10.65;;
22070;SDS011;11200;51.488;6.668;2022-11-14T16:22:31;12.35;;;10.32;;
22070;SDS011;11200;51.488;6.668;2022-11-14T16:24:59;12.70;;;10.35;;
22070;SDS011;11200;51.488;6.668;2022-11-14T16:27:25;12.35;;;10.30;;
22070;SDS011;11200;51.488;6.668;2022-11-14T16:29:54;12.90;;;10.38;;
22070;SDS011;11200;51.488;6.668;2022-11-14T16:32:19;14.75;;;10.45;;
22070;SDS011;11200;51.488;6.668;2022-11-14T16:34:47;11.55;;;9.85;;
22070;SDS011;11200;51.488;6.668;2022-11-14T16:37:13;12.93;;;9.82;;
22070;SDS011;11200;51.488;6.668;2022-11-14T16:39:40;13.57;;;10.38;;
22070;SDS011;11200;51.488;6.668;2022-11-14T16:42:07;12.93;;;10.18;;
22070;SDS011;11200;51.488;6.668;2022-11-14T16:44:35;12.05;;;9.35;;
22070;SDS011;11200;51.488;6.668;2022-11-14T16:47:00;13.45;;;10.30;;
22070;SDS011;11200;51.488;6.668;2022-11-14T16:49:26;12.00;;;9.90;;
22070;SDS011;11200;51.488;6.668;2022-11-14T16:51:51;13.00;;;10.48;;
22070;SDS011;11200;51.488;6.668;2022-11-14T16:54:19;13.73;;;10.82;;
22070;SDS011;11200;51.488;6.668;2022-11-14T16:56:45;13.05;;;10.30;;
22070;SDS011;11200;51.488;6.668;2022-11-14T16:59:14;12.38;;;10.23;;
22070;SDS011;11200;51.488;6.668;2022-11-14T17:01:43;13.55;;;10.15;;
22070;SDS011;11200;51.488;6.668;2022-11-14T17:04:09;13.15;;;10.25;;
22070;SDS011;11200;51.488;6.668;2022-11-14T17:06:35;13.18;;;10.20;;
22070;SDS011;11200;51.488;6.668;2022-11-14T17:09:13;12.40;;;9.85;;
22070;SDS011;11200;51.488;6.668;2022-11-14T17:11:41;12.50;;;9.60;;
22070;SDS011;11200;51.488;6.668;2022-11-14T17:26:12;13.10;;;10.25;;